Time;durP1;ratioP1;P1;durP2;ratioP2;P2;SDS_P1;SDS_P2;PMS_P1;PMS_P2;Temp;Humidity;BMP_temperature;BMP_pressure;BME280_temperature;BME280_humidity;BME280_pressure;Samples;Min_cycle;Max_cycle;Signal;HPM_P1;HPM_P2
2022/09/11 00:00:36;;;;;;;54.00;24.55;;;;;;;13.79;100.00;101065.56;5017356;28;20489;-85
2022/09/11 00:03:01;;;;;;;58.83;27.17;;;;;;;13.81;100.00;101072.44;5017497;28;20036;-85
2022/09/11 00:05:26;;;;;;;67.70;29.83;;;;;;;13.86;100.00;101078.13;5020281;28;20136;-86
2022/09/11 00:07:52;;;;;;;98.77;39.03;;;;;;;13.90;100.00;101076.75;5038113;23;20049;-82
2022/09/11 00:10:17;;;;;;;69.00;33.63;;;;;;;13.89;100.00;101082.31;5027464;28;20141;-79
2022/09/11 00:12:43;;;;;;;96.37;41.23;;;;;;;13.95;100.00;101089.66;5009558;28;20022;-79
2022/09/11 00:15:10;;;;;;;85.80;39.50;;;;;;;13.89;100.00;101088.50;5018998;28;20039;-78
2022/09/11 00:17:36;;;;;;;122.88;48.38;;;;;;;13.96;100.00;101096.69;5025894;28;20560;-80
2022/09/11 00:20:02;;;;;;;;;;;;;;;14.06;100.00;101101.84;5027296;28;20175;-79
2022/09/11 00:22:28;;;;;;;102.22;45.13;;;;;;;14.01;100.00;101097.00;5027478;28;20491;-79
2022/09/11 00:24:53;;;;;;;98.27;45.73;;;;;;;14.15;100.00;101120.41;5028958;28;20025;-78
2022/09/11 00:27:19;;;;;;;190.18;60.95;;;;;;;14.17;100.00;101114.88;5015433;28;20025;-77
2022/09/11 00:29:45;;;;;;;128.27;53.20;;;;;;;14.18;100.00;101121.06;5031848;28;20034;-80
2022/09/11 00:32:11;;;;;;;120.97;51.30;;;;;;;14.19;100.00;101118.22;5011353;28;20064;-79
2022/09/11 00:34:38;;;;;;;104.40;48.53;;;;;;;14.31;100.00;101132.09;5031729;28;20042;-79
2022/09/11 00:37:04;;;;;;;102.65;45.72;;;;;;;14.32;100.00;101129.19;5013356;28;20026;-79
2022/09/11 00:39:29;;;;;;;116.13;46.97;;;;;;;14.34;100.00;101135.22;5014781;28;20056;-79
2022/09/11 00:41:55;;;;;;;118.13;46.20;;;;;;;14.45;100.00;101142.06;5029986;28;20049;-79
2022/09/11 00:44:24;;;;;;;99.80;40.65;;;;;;;14.47;100.00;101141.84;5033402;28;20155;-78
2022/09/11 00:46:53;;;;;;;114.45;41.78;;;;;;;14.41;100.00;101135.34;5009312;28;20026;-78
2022/09/11 00:49:41;;;;;;;102.95;38.47;;;;;;;14.35;100.00;101128.00;5014537;28;20118;-79
2022/09/11 00:52:26;;;;;;;67.00;31.20;;;;;;;14.36;100.00;101135.88;5013081;28;20115;-82
2022/09/11 00:54:55;;;;;;;71.95;32.25;;;;;;;14.33;100.00;101128.19;5030069;28;20064;-79
2022/09/11 00:57:25;;;;;;;71.03;30.73;;;;;;;14.25;100.00;101135.47;5014491;28;20480;-78
2022/09/11 00:59:54;;;;;;;63.78;28.88;;;;;;;14.18;100.00;101129.97;5032511;28;20113;-79
2022/09/11 01:02:22;;;;;;;52.67;26.92;;;;;;;14.11;100.00;101123.63;5012208;28;20029;-80
2022/09/11 01:04:49;;;;;;;57.80;27.02;;;;;;;14.05;100.00;101129.72;5012816;28;20112;-82
2022/09/11 01:07:16;;;;;;;45.63;26.13;;;;;;;13.99;100.00;101119.66;5009365;28;20026;-80
2022/09/11 01:09:42;;;;;;;56.38;27.85;;;;;;;13.91;100.00;101123.25;5025038;28;20116;-78
2022/09/11 01:12:17;;;;;;;54.35;27.90;;;;;;;13.89;100.00;101128.78;5010385;28;20025;-79
2022/09/11 01:15:07;;;;;;;59.25;27.83;;;;;;;13.85;100.00;101135.50;5029951;28;20128;-78
2022/09/11 01:17:33;;;;;;;46.40;23.92;;;;;;;13.84;100.00;101139.19;4995740;28;20038;-79
2022/09/11 01:20:25;;;;;;;55.57;26.20;;;;;;;13.82;100.00;101135.84;5018723;28;20026;-79
2022/09/11 01:23:18;;;;;;;46.33;26.40;;;;;;;13.83;100.00;101144.72;5002598;28;20033;-77
2022/09/11 01:26:06;;;;;;;54.08;26.73;;;;;;;13.84;100.00;101141.88;5015713;28;20177;-78
2022/09/11 01:28:56;;;;;;;51.40;27.00;;;;;;;13.83;100.00;101156.28;5012410;28;20037;-77
2022/09/11 01:31:28;;;;;;;94.53;35.63;;;;;;;13.76;100.00;101152.63;5030956;28;20037;-79
2022/09/11 01:34:08;;;;;;;57.42;28.80;;;;;;;13.79;100.00;101154.13;5015478;28;20557;-79
2022/09/11 01:36:39;;;;;;;58.75;29.63;;;;;;;13.86;100.00;101164.03;5022602;28;20036;-79
2022/09/11 01:39:05;;;;;;;57.58;30.52;;;;;;;13.92;100.00;101170.53;5031191;28;20034;-79
2022/09/11 01:41:34;;;;;;;;;;;;;;;14.00;100.00;101181.25;5031811;28;20096;-78
2022/09/11 01:44:16;;;;;;;59.83;28.90;;;;;;;14.07;100.00;101184.03;5019617;28;20005;-79
2022/09/11 01:46:48;;;;;;;58.92;29.50;;;;;;;14.12;100.00;101189.75;5021133;28;20038;-79
2022/09/11 01:49:27;;;;;;;65.30;32.55;;;;;;;14.20;100.00;101194.25;5013612;28;20029;-80
2022/09/11 01:51:57;;;;;;;75.53;36.53;;;;;;;14.21;100.00;101202.13;5020829;28;20056;-80
2022/09/11 01:54:28;;;;;;;66.65;35.17;;;;;;;14.26;100.00;101198.91;5012753;28;20037;-79
2022/09/11 01:57:01;;;;;;;51.45;28.92;;;;;;;14.26;100.00;101197.06;5014417;28;20030;-78
2022/09/11 01:59:33;;;;;;;67.65;33.90;;;;;;;14.25;100.00;101206.13;5027823;28;20117;-81
2022/09/11 02:02:10;;;;;;;75.97;35.30;;;;;;;14.23;100.00;101207.31;5009324;28;20096;-81
2022/09/11 02:04:47;;;;;;;77.07;34.92;;;;;;;14.21;100.00;101203.97;5012867;28;20026;-77
2022/09/11 02:07:20;;;;;;;70.72;34.17;;;;;;;14.27;100.00;101214.84;5009886;28;20030;-80
2022/09/11 02:09:55;;;;;;;59.25;30.52;;;;;;;14.25;100.00;101206.13;5010603;28;20038;-78
2022/09/11 02:12:26;;;;;;;80.75;36.78;;;;;;;14.20;100.00;101213.88;5031797;28;20071;-78
2022/09/11 02:14:52;;;;;;;64.32;33.13;;;;;;;14.15;100.00;101206.34;5031817;28;20692;-79
2022/09/11 02:17:49;;;;;;;71.93;33.03;;;;;;;14.11;100.00;101209.53;5010880;28;20081;-79
2022/09/11 02:20:14;;;;;;;69.75;32.17;;;;;;;14.21;100.00;101215.56;5033258;28;20037;-78
2022/09/11 02:22:42;;;;;;;68.45;32.58;;;;;;;14.22;100.00;101217.22;5012788;28;20022;-80
2022/09/11 02:25:08;;;;;;;68.05;31.63;;;;;;;14.17;100.00;101214.22;5038004;28;20530;-80
2022/09/11 02:27:34;;;;;;;63.05;30.08;;;;;;;14.20;100.00;101219.25;5012996;28;20053;-79
2022/09/11 02:30:00;;;;;;;60.85;30.65;;;;;;;14.19;100.00;101217.56;5029409;28;20446;-79
2022/09/11 02:32:30;;;;;;;65.38;33.63;;;;;;;14.17;100.00;101219.59;5011134;28;20426;-79
2022/09/11 02:34:56;;;;;;;56.47;30.63;;;;;;;14.11;100.00;101215.75;5010424;28;20033;-79
2022/09/11 02:37:37;;;;;;;55.25;29.38;;;;;;;14.15;100.00;101216.25;5027156;28;20029;-79
2022/09/11 02:40:30;;;;;;;61.13;32.17;;;;;;;14.14;100.00;101215.41;5030288;28;20399;-79
2022/09/11 02:43:32;;;;;;;68.20;33.42;;;;;;;14.04;100.00;101213.94;5016540;28;20030;-77
2022/09/11 02:46:33;;;;;;;50.45;28.73;;;;;;;13.94;100.00;101198.03;5025580;28;20033;-78
2022/09/11 02:49:15;;;;;;;49.90;29.90;;;;;;;13.90;100.00;101197.53;5027112;28;20032;-77
2022/09/11 02:52:20;;;;;;;49.55;27.83;;;;;;;13.83;100.00;101195.72;5023934;28;20048;-80
2022/09/11 02:55:04;;;;;;;42.60;24.30;;;;;;;13.72;100.00;101192.41;5022134;28;20030;-80
2022/09/11 02:57:37;;;;;;;52.92;24.90;;;;;;;13.69;100.00;101189.22;5009893;28;20026;-80
2022/09/11 03:00:06;;;;;;;45.72;25.77;;;;;;;13.65;100.00;101183.38;5025623;28;20053;-79
2022/09/11 03:02:36;;;;;;;40.28;23.17;;;;;;;13.62;100.00;101193.59;5018555;28;20025;-79
2022/09/11 03:05:03;;;;;;;54.05;24.50;;;;;;;13.67;100.00;101186.72;5012045;28;20036;-82
2022/09/11 03:07:28;;;;;;;41.75;23.85;;;;;;;13.60;100.00;101191.13;5028176;28;20021;-80
2022/09/11 03:09:54;;;;;;;42.00;22.30;;;;;;;13.47;100.00;101182.75;5026032;28;20044;-79
2022/09/11 03:12:22;;;;;;;46.90;24.70;;;;;;;13.45;100.00;101182.91;5008674;28;20280;-79
2022/09/11 03:14:49;;;;;;;42.85;22.27;;;;;;;13.40;100.00;101184.44;5029136;28;20510;-80
2022/09/11 03:17:15;;;;;;;39.35;23.63;;;;;;;13.31;100.00;101172.88;5025043;28;20573;-79
2022/09/11 03:19:41;;;;;;;39.67;22.85;;;;;;;13.25;100.00;101179.75;5012180;28;20785;-80
2022/09/11 03:22:06;;;;;;;45.27;23.13;;;;;;;13.27;100.00;101175.09;5010060;28;20050;-80
2022/09/11 03:24:33;;;;;;;38.70;22.40;;;;;;;13.17;100.00;101186.94;5009454;28;20075;-78
2022/09/11 03:26:59;;;;;;;43.53;22.42;;;;;;;13.17;100.00;101178.91;5009561;28;20025;-79
2022/09/11 03:29:26;;;;;;;39.92;21.42;;;;;;;13.15;100.00;101186.28;5024471;28;20060;-79
2022/09/11 03:31:51;;;;;;;40.50;20.63;;;;;;;13.08;100.00;101181.56;5025763;28;20060;-78
2022/09/11 03:34:17;;;;;;;34.07;19.50;;;;;;;13.07;100.00;101187.97;5025421;28;20045;-79
2022/09/11 03:36:43;;;;;;;38.95;20.73;;;;;;;13.04;100.00;101185.63;5011329;28;20083;-81
2022/09/11 03:39:09;;;;;;;35.10;18.52;;;;;;;13.01;100.00;101190.47;5032171;28;20128;-79
2022/09/11 03:41:35;;;;;;;38.47;19.70;;;;;;;12.93;100.00;101188.63;5016219;28;20064;-78
2022/09/11 03:44:00;;;;;;;31.83;17.23;;;;;;;12.87;100.00;101178.56;5033200;28;20052;-79
2022/09/11 03:46:27;;;;;;;31.70;18.15;;;;;;;12.91;100.00;101187.94;5015745;28;20036;-80
2022/09/11 03:48:53;;;;;;;28.07;17.27;;;;;;;12.94;100.00;101197.50;5016447;28;20422;-79
2022/09/11 03:51:19;;;;;;;28.42;15.82;;;;;;;12.93;100.00;101199.34;5031917;28;20029;-79
2022/09/11 03:53:45;;;;;;;;;;;;;;;12.87;100.00;101200.00;5035882;28;20034;-80
2022/09/11 03:56:11;;;;;;;33.10;17.40;;;;;;;12.78;100.00;101201.00;5035850;28;19909;-80
2022/09/11 03:58:43;;;;;;;29.08;16.25;;;;;;;12.70;100.00;101198.31;5035633;28;20033;-82
2022/09/11 04:01:14;;;;;;;26.77;15.43;;;;;;;12.68;100.00;101202.00;5035984;28;20033;-81
2022/09/11 04:03:41;;;;;;;21.77;13.95;;;;;;;12.63;100.00;101203.50;5031633;28;20498;-80
2022/09/11 04:06:09;;;;;;;23.70;14.77;;;;;;;12.67;100.00;101216.41;5038103;28;20036;-80
2022/09/11 04:08:35;;;;;;;;;;;;;;;12.65;100.00;101222.94;5040199;28;20092;-80
2022/09/11 04:11:04;;;;;;;25.48;15.18;;;;;;;12.65;100.00;101220.25;5032249;28;19956;-81
2022/09/11 04:13:34;;;;;;;27.75;16.25;;;;;;;12.63;100.00;101225.75;5032049;28;20500;-82
2022/09/11 04:16:08;;;;;;;27.60;15.65;;;;;;;12.49;100.00;101221.03;5023847;28;20086;-82
2022/09/11 04:18:37;;;;;;;27.92;15.10;;;;;;;12.54;100.00;101226.75;5033510;28;20469;-82
2022/09/11 04:21:05;;;;;;;37.25;17.30;;;;;;;12.56;100.00;101229.25;5032797;28;20018;-81
2022/09/11 04:23:30;;;;;;;32.63;18.02;;;;;;;12.55;100.00;101232.94;5028326;28;20564;-80
2022/09/11 04:25:57;;;;;;;29.83;17.83;;;;;;;12.65;100.00;101255.06;5041713;28;20021;-81
2022/09/11 04:28:22;;;;;;;28.98;16.85;;;;;;;12.78;100.00;101262.63;5045138;28;20055;-79
2022/09/11 04:30:48;;;;;;;28.15;15.95;;;;;;;12.85;100.00;101269.84;5015802;28;20018;-79
2022/09/11 04:33:14;;;;;;;30.20;16.35;;;;;;;12.92;100.00;101283.41;5043341;28;20041;-80
2022/09/11 04:35:40;;;;;;;30.73;18.15;;;;;;;13.00;100.00;101290.66;5021150;28;20521;-79
2022/09/11 04:38:07;;;;;;;34.90;18.27;;;;;;;13.05;100.00;101299.03;5037264;28;20694;-79
2022/09/11 04:40:34;;;;;;;36.08;18.08;;;;;;;13.02;100.00;101296.69;5017286;28;20112;-79
2022/09/11 04:43:01;;;;;;;32.83;18.30;;;;;;;12.98;100.00;101288.13;5029462;28;20103;-79
2022/09/11 04:45:32;;;;;;;22.60;13.93;;;;;;;12.95;100.00;101296.50;5011966;28;20028;-83
2022/09/11 04:48:00;;;;;;;30.58;16.90;;;;;;;12.97;100.00;101290.97;5020805;28;20046;-79
2022/09/11 04:50:27;;;;;;;31.07;15.77;;;;;;;13.05;100.00;101305.22;5037566;28;20521;-80
2022/09/11 04:53:09;;;;;;;29.65;15.25;;;;;;;13.10;100.00;101310.91;5036507;28;20037;-80
2022/09/11 04:55:35;;;;;;;30.85;16.83;;;;;;;13.08;100.00;101307.56;5036809;28;20148;-81
2022/09/11 04:58:00;;;;;;;31.13;17.73;;;;;;;13.14;100.00;101313.28;5017859;28;20022;-78
2022/09/11 05:00:26;;;;;;;29.50;15.73;;;;;;;13.20;100.00;101318.81;5035881;28;20116;-80
2022/09/11 05:02:53;;;;;;;30.23;16.50;;;;;;;13.24;100.00;101317.47;5021296;28;20025;-81
2022/09/11 05:05:19;;;;;;;37.83;19.58;;;;;;;13.25;100.00;101321.84;5020251;28;20030;-80
2022/09/11 05:07:48;;;;;;;34.30;18.48;;;;;;;13.29;100.00;101322.38;5017575;28;20033;-80
2022/09/11 05:10:15;;;;;;;34.92;16.60;;;;;;;13.32;100.00;101338.13;5028909;28;20037;-80
2022/09/11 05:12:40;;;;;;;;;;;;;;;13.35;100.00;101340.50;5017769;28;20459;-80
2022/09/11 05:15:07;;;;;;;23.67;14.82;;;;;;;13.38;100.00;101334.78;5031015;28;20007;-82
2022/09/11 05:17:33;;;;;;;26.35;15.80;;;;;;;13.40;100.00;101335.47;5037590;28;20726;-80
2022/09/11 05:19:59;;;;;;;23.80;14.65;;;;;;;13.33;100.00;101326.41;5037265;28;20044;-80
2022/09/11 05:22:25;;;;;;;20.52;13.48;;;;;;;13.31;100.00;101331.09;5035905;28;20021;-79
2022/09/11 05:24:54;;;;;;;21.63;13.98;;;;;;;13.39;100.00;101339.16;5035974;28;20568;-81
2022/09/11 05:27:20;;;;;;;23.77;13.32;;;;;;;13.37;100.00;101335.81;5017985;28;20503;-81
2022/09/11 05:29:45;;;;;;;21.00;12.63;;;;;;;13.40;100.00;101351.56;5035974;28;20030;-78
2022/09/11 05:32:13;;;;;;;32.67;15.75;;;;;;;13.38;100.00;101353.56;5020297;28;20359;-79
2022/09/11 05:34:39;;;;;;;18.45;10.65;;;;;;;13.33;100.00;101337.13;5037595;28;20036;-78
2022/09/11 05:37:08;;;;;;;25.10;13.65;;;;;;;13.33;100.00;101350.53;5019357;28;20025;-82
2022/09/11 05:39:41;;;;;;;20.75;11.75;;;;;;;13.29;100.00;101354.56;5033234;28;20041;-84
2022/09/11 05:42:08;;;;;;;16.67;11.80;;;;;;;13.28;100.00;101351.03;5029895;28;20461;-81
2022/09/11 05:44:37;;;;;;;18.17;10.88;;;;;;;13.24;100.00;101352.34;5032192;28;20029;-83
2022/09/11 05:47:04;;;;;;;16.80;10.88;;;;;;;13.18;100.00;101346.78;5032700;28;20490;-80
2022/09/11 05:49:29;;;;;;;18.97;11.43;;;;;;;13.39;100.00;101367.81;5018291;28;20032;-81
2022/09/11 05:51:56;;;;;;;21.42;10.70;;;;;;;13.43;100.00;101367.31;5017444;28;20037;-80
2022/09/11 05:54:24;;;;;;;19.60;11.30;;;;;;;13.45;100.00;101375.19;5017495;28;20045;-82
2022/09/11 05:56:53;;;;;;;23.55;12.93;;;;;;;13.61;100.00;101388.63;5017835;28;20044;-81
2022/09/11 05:59:22;;;;;;;18.77;11.77;;;;;;;14.58;100.00;101429.00;5017879;28;20041;-83
2022/09/11 06:01:49;;;;;;;16.67;9.32;;;;;;;15.55;100.00;101450.25;5033057;28;20437;-79
2022/09/11 06:04:27;;;;;;;14.50;9.85;;;;;;;16.14;100.00;101438.88;5026129;28;20027;-79
2022/09/11 06:06:53;;;;;;;10.60;6.82;;;;;;;16.95;100.00;101412.94;5035742;28;20037;-80
2022/09/11 06:09:18;;;;;;;10.57;7.83;;;;;;;17.00;100.00;101326.06;5036742;28;20044;-79
2022/09/11 06:11:44;;;;;;;8.93;6.33;;;;;;;17.18;100.00;101237.41;5036995;28;20071;-80
2022/09/11 06:14:12;;;;;;;9.95;5.93;;;;;;;17.37;100.00;101154.97;5018074;28;20448;-81
2022/09/11 06:16:38;;;;;;;10.07;5.13;;;;;;;17.64;100.00;101096.53;5035272;28;20032;-80
2022/09/11 06:19:10;;;;;;;5.18;4.38;;;;;;;18.61;100.00;101102.66;5035338;28;20494;-80
2022/09/11 06:21:35;;;;;;;7.10;5.00;;;;;;;19.11;100.00;101080.63;5036297;28;20030;-79
2022/09/11 06:24:10;;;;;;;4.03;3.55;;;;;;;18.65;100.00;101076.88;5015753;28;20021;-82
2022/09/11 06:26:35;;;;;;;8.55;4.45;;;;;;;18.62;100.00;101077.28;5029312;28;20033;-82
2022/09/11 06:29:01;;;;;;;7.33;4.07;;;;;;;17.56;100.00;101050.84;5008187;28;20095;-80
2022/09/11 06:31:28;;;;;;;5.93;4.43;;;;;;;16.76;100.00;101054.88;5026954;28;20184;-81
2022/09/11 06:33:54;;;;;;;6.70;5.00;;;;;;;16.03;100.00;101076.56;5012054;28;20052;-82
2022/09/11 06:36:30;;;;;;;5.68;4.55;;;;;;;16.00;100.00;101111.97;5013173;28;20482;-83
2022/09/11 06:38:57;;;;;;;8.65;6.00;;;;;;;15.63;100.00;101128.03;5029311;28;20033;-80
2022/09/11 06:41:26;;;;;;;7.13;4.72;;;;;;;15.51;100.00;101140.28;5013272;28;20022;-81
2022/09/11 06:43:56;;;;;;;8.65;6.28;;;;;;;15.18;100.00;101143.31;5029924;28;20126;-80
2022/09/11 06:46:24;;;;;;;9.35;6.68;;;;;;;15.19;100.00;101155.78;5030061;28;20376;-80
2022/09/11 06:48:54;;;;;;;7.80;6.22;;;;;;;15.19;100.00;101171.91;5010083;28;20070;-83
2022/09/11 06:51:23;;;;;;;12.30;8.45;;;;;;;15.20;100.00;101167.34;5027721;28;20057;-81
2022/09/11 06:53:56;;;;;;;9.88;7.45;;;;;;;15.16;100.00;101182.19;5012034;28;20074;-81
2022/09/11 06:56:22;;;;;;;17.20;9.07;;;;;;;15.06;100.00;101193.19;5028496;28;20045;-82
2022/09/11 06:58:49;;;;;;;12.32;8.40;;;;;;;15.19;100.00;101197.94;5010357;28;20109;-81
2022/09/11 07:01:17;;;;;;;13.38;7.80;;;;;;;15.31;100.00;101201.03;5015588;28;20122;-79
2022/09/11 07:03:45;;;;;;;9.90;7.82;;;;;;;15.40;100.00;101208.00;5017118;28;20079;-79
2022/09/11 07:06:13;;;;;;;12.15;7.32;;;;;;;15.57;100.00;101212.22;5030794;28;20033;-84
2022/09/11 07:08:41;;;;;;;9.43;7.22;;;;;;;15.62;100.00;101214.38;5029853;28;20021;-80
2022/09/11 07:11:07;;;;;;;10.20;7.63;;;;;;;15.57;100.00;101203.31;5029888;28;20043;-81
2022/09/11 07:13:35;;;;;;;11.82;7.97;;;;;;;15.76;100.00;101210.03;5029506;28;20052;-80
2022/09/11 07:16:05;;;;;;;8.95;7.57;;;;;;;15.75;100.00;101214.56;5029670;28;20043;-79
2022/09/11 07:18:38;;;;;;;10.23;8.05;;;;;;;15.66;100.00;101204.06;5013521;28;20021;-78
2022/09/11 07:21:10;;;;;;;10.25;7.13;;;;;;;15.75;100.00;101209.19;5029898;28;20467;-79
2022/09/11 07:23:40;;;;;;;15.20;9.57;;;;;;;15.48;100.00;101197.19;5030028;28;20029;-79
2022/09/11 07:26:09;;;;;;;11.43;8.65;;;;;;;15.43;100.00;101207.66;5014189;28;20052;-79
2022/09/11 07:28:36;;;;;;;10.98;8.15;;;;;;;15.48;100.00;101210.63;5030591;28;20035;-79
2022/09/11 07:31:11;;;;;;;10.02;7.13;;;;;;;15.54;100.00;101228.72;5013600;28;20025;-82
2022/09/11 07:33:38;;;;;;;13.02;8.90;;;;;;;15.48;100.00;101221.41;5029912;28;20052;-80
2022/09/11 07:36:15;;;;;;;12.93;8.05;;;;;;;15.63;100.00;101224.09;5023529;28;20017;-79
2022/09/11 07:38:43;;;;;;;11.13;8.15;;;;;;;15.56;100.00;101228.53;5012999;28;20039;-79
2022/09/11 07:41:12;;;;;;;9.75;7.65;;;;;;;15.47;100.00;101221.56;5013285;28;20022;-79
2022/09/11 07:44:22;;;;;;;8.85;6.88;;;;;;;15.27;100.00;101214.03;5029328;28;20512;-79
2022/09/11 07:46:31;;;;;;;10.13;8.02;;;;;;;15.18;100.00;101221.31;5021604;28;20065;-80
2022/09/11 07:49:01;;;;;;;11.98;10.10;;;;;;;15.35;100.00;101230.06;5009253;28;20025;-78
2022/09/11 07:51:28;;;;;;;9.95;8.88;;;;;;;15.57;100.00;101246.38;5028847;28;20056;-80
2022/09/11 07:53:56;;;;;;;11.05;9.18;;;;;;;15.59;100.00;101250.56;5029617;28;20017;-80
2022/09/11 07:56:24;;;;;;;13.82;10.00;;;;;;;15.68;100.00;101245.06;5012492;28;20057;-79
2022/09/11 07:58:51;;;;;;;14.00;9.95;;;;;;;15.62;100.00;101244.81;5029910;28;20100;-78
2022/09/11 08:01:21;;;;;;;12.73;8.07;;;;;;;15.63;100.00;101240.25;5028246;28;20030;-79
2022/09/11 08:03:48;;;;;;;13.00;9.90;;;;;;;15.48;100.00;101234.84;5025410;28;20042;-79
2022/09/11 08:06:16;;;;;;;9.75;8.48;;;;;;;15.72;100.00;101254.50;5007777;28;20022;-79
2022/09/11 08:08:44;;;;;;;13.00;9.68;;;;;;;15.82;100.00;101258.56;5025749;28;20055;-79
2022/09/11 08:11:11;;;;;;;11.10;9.43;;;;;;;15.79;100.00;101258.13;5010564;28;20478;-79
2022/09/11 08:13:37;;;;;;;13.68;10.07;;;;;;;15.58;100.00;101248.88;5027309;28;20100;-80
2022/09/11 08:16:04;;;;;;;15.25;8.45;;;;;;;15.61;100.00;101255.75;5017009;28;20556;-78
2022/09/11 08:18:30;;;;;;;9.70;7.93;;;;;;;15.73;100.00;101265.09;5009814;28;20040;-79
2022/09/11 08:21:07;;;;;;;8.63;7.35;;;;;;;15.62;100.00;101258.25;5026029;28;20025;-79
2022/09/11 08:23:34;;;;;;;13.02;9.45;;;;;;;15.66;100.00;101263.25;5026280;28;20580;-80
2022/09/11 08:26:04;;;;;;;10.43;7.57;;;;;;;15.69;100.00;101274.50;5027100;28;20018;-80
2022/09/11 08:28:30;;;;;;;12.45;8.73;;;;;;;15.78;100.00;101286.03;5014807;28;20541;-79
2022/09/11 08:30:57;;;;;;;13.18;8.82;;;;;;;15.63;100.00;101284.13;5009670;28;20018;-79
2022/09/11 08:33:23;;;;;;;11.80;8.18;;;;;;;15.57;100.00;101282.19;5008966;28;20038;-79
2022/09/11 08:35:49;;;;;;;13.85;8.32;;;;;;;15.59;100.00;101290.94;5027844;28;20021;-80
2022/09/11 08:38:14;;;;;;;15.25;8.93;;;;;;;15.67;100.00;101292.69;5027395;28;20132;-79
2022/09/11 08:40:40;;;;;;;14.90;8.77;;;;;;;15.68;100.00;101299.75;5009751;28;20018;-80
2022/09/11 08:43:20;;;;;;;14.45;8.60;;;;;;;15.61;100.00;101298.78;5013073;28;20037;-79
2022/09/11 08:45:48;;;;;;;11.52;8.55;;;;;;;15.62;100.00;101295.94;5026852;28;20028;-77
2022/09/11 08:48:13;;;;;;;10.68;8.85;;;;;;;15.79;100.00;101301.19;5011201;28;20588;-79
2022/09/11 08:50:42;;;;;;;12.57;8.83;;;;;;;16.08;100.00;101321.09;5028399;28;20120;-79
2022/09/11 08:53:15;;;;;;;10.77;6.88;;;;;;;16.18;100.00;101313.59;5012944;28;20311;-79
2022/09/11 08:56:08;;;;;;;11.55;8.65;;;;;;;16.13;100.00;101297.13;5028080;28;20029;-80
2022/09/11 08:58:46;;;;;;;9.90;7.85;;;;;;;16.14;100.00;101291.56;5027502;28;20038;-78
2022/09/11 09:01:21;;;;;;;9.50;8.13;;;;;;;16.27;100.00;101298.97;5026741;28;20033;-78
2022/09/11 09:04:25;;;;;;;9.27;7.38;;;;;;;16.32;100.00;101301.97;5027016;28;20490;-80
2022/09/11 09:07:07;;;;;;;8.57;7.28;;;;;;;16.47;100.00;101315.44;5026846;28;20799;-78
2022/09/11 09:09:54;;;;;;;12.13;8.55;;;;;;;16.41;100.00;101308.94;5020214;28;20661;-79
2022/09/11 09:12:39;;;;;;;7.95;6.80;;;;;;;16.50;100.00;101308.81;5028671;28;20038;-78
2022/09/11 09:15:29;;;;;;;11.32;7.65;;;;;;;16.42;100.00;101310.59;5028971;28;20824;-79
2022/09/11 09:18:01;;;;;;;9.48;7.28;;;;;;;16.34;100.00;101302.63;5022069;28;21051;-77
2022/09/11 09:20:33;;;;;;;10.52;7.45;;;;;;;16.77;100.00;101318.91;5032183;28;20034;-78
2022/09/11 09:23:18;;;;;;;10.15;6.50;;;;;;;16.59;100.00;101302.31;5032057;28;20044;-80
2022/09/11 09:25:45;;;;;;;;;;;;;;;16.76;100.00;101303.75;5024824;28;20036;-79
2022/09/11 09:28:25;;;;;;;7.50;6.60;;;;;;;16.95;100.00;101304.19;5020074;28;19939;-78
2022/09/11 09:30:58;;;;;;;7.57;6.07;;;;;;;16.99;100.00;101300.09;5014831;28;20128;-78
2022/09/11 09:33:31;;;;;;;8.82;5.88;;;;;;;17.18;100.00;101302.16;5029505;28;20041;-80
2022/09/11 09:36:10;;;;;;;8.38;6.80;;;;;;;17.67;100.00;101311.31;5016192;28;20061;-78
2022/09/11 09:38:36;;;;;;;7.00;5.20;;;;;;;17.89;100.00;101298.66;5021987;28;20055;-76
2022/09/11 09:41:17;;;;;;;7.07;5.27;;;;;;;17.46;100.00;101266.28;5031820;28;20440;-77
2022/09/11 09:44:24;;;;;;;6.20;5.13;;;;;;;17.27;100.00;101273.19;5024395;28;20041;-79
2022/09/11 09:46:52;;;;;;;8.57;5.47;;;;;;;17.18;100.00;101283.25;4975119;28;20038;-79
2022/09/11 09:49:31;;;;;;;6.40;5.75;;;;;;;16.91;100.00;101292.13;5028647;28;20120;-79
2022/09/11 09:52:02;;;;;;;5.72;5.13;;;;;;;16.92;100.00;101313.50;5029795;28;20056;-78
2022/09/11 09:54:32;;;;;;;4.88;4.10;;;;;;;17.20;100.00;101319.00;5014265;28;20086;-79
2022/09/11 09:57:03;;;;;;;4.75;3.65;;;;;;;17.35;100.00;101307.28;5030263;28;20032;-79
2022/09/11 09:59:35;;;;;;;3.30;2.70;;;;;;;17.65;100.00;101292.63;5013209;28;20030;-78
2022/09/11 10:02:01;;;;;;;2.55;2.35;;;;;;;17.64;100.00;101242.34;5031380;28;20194;-78
2022/09/11 10:04:29;;;;;;;5.20;1.83;;;;;;;18.01;100.00;101218.72;5013624;28;20651;-77
2022/09/11 10:07:17;;;;;;;3.50;2.17;;;;;;;18.81;100.00;101224.41;5026464;28;20398;-80
2022/09/11 10:09:46;;;;;;;1.70;1.60;;;;;;;20.38;100.00;101159.56;5023442;28;20123;-79
2022/09/11 10:12:17;;;;;;;1.90;1.40;;;;;;;19.94;100.00;101013.03;5030810;28;20064;-77
2022/09/11 10:14:56;;;;;;;3.35;1.73;;;;;;;19.46;100.00;101005.34;5029280;28;20052;-79
2022/09/11 10:17:32;;;;;;;2.88;2.00;;;;;;;18.93;100.00;100973.88;5013912;28;20041;-78
2022/09/11 10:20:17;;;;;;;3.08;2.08;;;;;;;18.82;100.00;101050.25;5013117;28;20482;-79
2022/09/11 10:22:43;;;;;;;3.92;1.83;;;;;;;18.47;100.00;101118.06;5030075;28;20060;-80
2022/09/11 10:25:15;;;;;;;3.05;1.85;;;;;;;18.35;100.00;101152.09;5010153;28;20067;-76
2022/09/11 10:27:58;;;;;;;2.00;1.48;;;;;;;18.64;100.00;101142.81;5027150;28;20033;-77
2022/09/11 10:30:30;;;;;;;2.45;1.40;;;;;;;19.17;100.00;101177.19;5026486;28;20506;-77
2022/09/11 10:32:57;;;;;;;1.98;1.33;;;;;;;19.42;100.00;101101.56;5027722;28;20036;-78
2022/09/11 10:35:26;;;;;;;1.52;1.42;;;;;;;19.10;100.00;101084.34;5009576;28;20022;-78
2022/09/11 10:38:18;;;;;;;4.13;1.40;;;;;;;18.73;100.00;100954.09;5025735;28;20048;-77
2022/09/11 10:41:21;;;;;;;1.60;1.38;;;;;;;18.56;100.00;100976.19;5017697;28;20451;-79
2022/09/11 10:44:02;;;;;;;2.45;1.23;;;;;;;18.41;100.00;100982.88;5020189;28;20482;-79
2022/09/11 10:46:31;;;;;;;1.80;1.38;;;;;;;18.12;100.00;101034.41;5027596;28;20486;-78
2022/09/11 10:49:02;;;;;;;1.70;1.58;;;;;;;18.14;100.00;101096.34;5025944;28;20032;-79
2022/09/11 10:51:32;;;;;;;2.22;1.38;;;;;;;18.08;100.00;101125.00;5026831;28;20039;-78
2022/09/11 10:54:20;;;;;;;2.78;1.30;;;;;;;17.67;100.00;101084.50;5027456;28;20025;-78
2022/09/11 10:56:57;;;;;;;3.42;1.90;;;;;;;17.89;100.00;101125.78;5023241;28;20128;-77
2022/09/11 10:59:33;;;;;;;1.65;1.40;;;;;;;17.64;100.00;101103.81;5027428;28;20041;-77
2022/09/11 11:01:59;;;;;;;1.65;1.15;;;;;;;17.64;100.00;101095.72;5026492;28;20087;-78
2022/09/11 11:04:30;;;;;;;2.00;1.47;;;;;;;17.75;100.00;101153.69;5028147;28;20017;-78
2022/09/11 11:07:22;;;;;;;1.73;1.20;;;;;;;18.01;100.00;101174.66;5029479;28;20464;-79
2022/09/11 11:10:04;;;;;;;3.78;1.38;;;;;;;19.50;100.00;101179.88;5029893;28;20029;-79
2022/09/11 11:12:47;;;;;;;1.00;1.00;;;;;;;21.05;100.00;100992.50;5009636;28;20033;-80
2022/09/11 11:15:22;;;;;;;2.05;1.10;;;;;;;21.70;100.00;100735.69;5028712;28;20041;-79
2022/09/11 11:18:16;;;;;;;1.20;1.10;;;;;;;21.23;100.00;100578.16;5029830;28;20041;-80
2022/09/11 11:21:15;;;;;;;1.73;1.40;;;;;;;21.31;100.00;100560.69;5014179;28;20820;-77
2022/09/11 11:24:02;;;;;;;1.23;0.80;;;;;;;20.55;100.00;100376.91;5014554;28;20773;-79
2022/09/11 11:26:35;;;;;;;1.00;0.90;;;;;;;21.25;100.00;100646.63;5030317;28;20053;-79
2022/09/11 11:29:18;;;;;;;2.38;1.05;;;;;;;22.43;100.00;100673.63;5028649;28;20029;-78